sensor_id;sensor_type;location;lat;lon;timestamp;P1;durP1;ratioP1;P2;durP2;ratioP2
44276;SDS011;29973;43.742;1.236;2023-10-19T00:00:41;6.70;;;3.72;;
44276;SDS011;29973;43.742;1.236;2023-10-19T00:03:11;8.98;;;4.07;;
44276;SDS011;29973;43.742;1.236;2023-10-19T00:05:37;8.95;;;3.88;;
44276;SDS011;29973;43.742;1.236;2023-10-19T00:08:04;7.57;;;4.30;;
44276;SDS011;29973;43.742;1.236;2023-10-19T00:10:43;11.75;;;4.10;;
44276;SDS011;29973;43.742;1.236;2023-10-19T00:13:12;8.82;;;3.75;;
44276;SDS011;29973;43.742;1.236;2023-10-19T00:15:40;9.73;;;3.88;;
44276;SDS011;29973;43.742;1.236;2023-10-19T00:18:17;9.32;;;3.85;;
44276;SDS011;29973;43.742;1.236;2023-10-19T00:20:44;8.65;;;4.05;;
44276;SDS011;29973;43.742;1.236;2023-10-19T00:23:14;10.90;;;4.93;;
44276;SDS011;29973;43.742;1.236;2023-10-19T00:25:46;9.35;;;4.78;;
44276;SDS011;29973;43.742;1.236;2023-10-19T02:59:57;23.80;;;6.78;;
44276;SDS011;29973;43.742;1.236;2023-10-19T03:02:24;19.17;;;5.50;;
44276;SDS011;29973;43.742;1.236;2023-10-19T03:04:54;18.48;;;5.93;;
44276;SDS011;29973;43.742;1.236;2023-10-19T03:07:20;17.60;;;6.55;;
44276;SDS011;29973;43.742;1.236;2023-10-19T03:09:45;21.10;;;5.90;;
44276;SDS011;29973;43.742;1.236;2023-10-19T03:12:14;20.45;;;5.88;;
44276;SDS011;29973;43.742;1.236;2023-10-19T03:14:40;23.83;;;6.28;;
44276;SDS011;29973;43.742;1.236;2023-10-19T03:17:11;20.75;;;6.10;;
44276;SDS011;29973;43.742;1.236;2023-10-19T03:19:38;20.75;;;5.65;;
44276;SDS011;29973;43.742;1.236;2023-10-19T03:22:03;19.75;;;5.95;;
44276;SDS011;29973;43.742;1.236;2023-10-19T03:24:31;16.45;;;6.30;;
44276;SDS011;29973;43.742;1.236;2023-10-19T03:27:06;28.75;;;7.05;;
44276;SDS011;29973;43.742;1.236;2023-10-19T03:29:44;20.38;;;6.07;;
44276;SDS011;29973;43.742;1.236;2023-10-19T03:32:18;20.48;;;5.90;;
44276;SDS011;29973;43.742;1.236;2023-10-19T03:34:47;22.17;;;5.90;;
44276;SDS011;29973;43.742;1.236;2023-10-19T03:37:14;21.80;;;5.97;;
44276;SDS011;29973;43.742;1.236;2023-10-19T03:39:41;19.63;;;5.57;;
44276;SDS011;29973;43.742;1.236;2023-10-19T03:42:10;17.83;;;5.28;;
44276;SDS011;29973;43.742;1.236;2023-10-19T03:44:39;25.38;;;6.28;;
44276;SDS011;29973;43.742;1.236;2023-10-19T03:47:18;26.45;;;6.40;;
44276;SDS011;29973;43.742;1.236;2023-10-19T03:49:45;17.95;;;5.50;;
44276;SDS011;29973;43.742;1.236;2023-10-19T03:52:12;21.30;;;6.70;;
44276;SDS011;29973;43.742;1.236;2023-10-19T03:54:38;21.85;;;6.05;;
44276;SDS011;29973;43.742;1.236;2023-10-19T03:57:05;22.65;;;5.40;;
44276;SDS011;29973;43.742;1.236;2023-10-19T03:59:44;21.52;;;5.00;;
44276;SDS011;29973;43.742;1.236;2023-10-19T04:02:11;19.08;;;4.88;;
44276;SDS011;29973;43.742;1.236;2023-10-19T04:04:42;24.08;;;6.10;;
44276;SDS011;29973;43.742;1.236;2023-10-19T04:07:14;25.67;;;6.00;;
44276;SDS011;29973;43.742;1.236;2023-10-19T04:09:43;20.65;;;6.05;;
44276;SDS011;29973;43.742;1.236;2023-10-19T04:12:28;20.17;;;5.22;;
44276;SDS011;29973;43.742;1.236;2023-10-19T04:14:56;23.23;;;5.45;;
44276;SDS011;29973;43.742;1.236;2023-10-19T04:17:35;20.25;;;5.18;;
44276;SDS011;29973;43.742;1.236;2023-10-19T04:20:01;18.30;;;5.05;;
44276;SDS011;29973;43.742;1.236;2023-10-19T04:22:38;20.33;;;6.30;;
44276;SDS011;29973;43.742;1.236;2023-10-19T04:25:04;17.92;;;5.88;;
44276;SDS011;29973;43.742;1.236;2023-10-19T04:27:31;22.60;;;5.57;;
44276;SDS011;29973;43.742;1.236;2023-10-19T04:30:00;19.23;;;5.88;;
44276;SDS011;29973;43.742;1.236;2023-10-19T04:32:27;20.73;;;4.57;;
44276;SDS011;29973;43.742;1.236;2023-10-19T04:34:53;26.42;;;6.10;;
44276;SDS011;29973;43.742;1.236;2023-10-19T04:37:19;29.92;;;6.20;;
44276;SDS011;29973;43.742;1.236;2023-10-19T04:39:47;23.90;;;5.60;;
44276;SDS011;29973;43.742;1.236;2023-10-19T04:42:14;20.23;;;6.05;;
44276;SDS011;29973;43.742;1.236;2023-10-19T04:44:40;23.75;;;5.65;;
44276;SDS011;29973;43.742;1.236;2023-10-19T04:47:06;24.08;;;5.72;;
44276;SDS011;29973;43.742;1.236;2023-10-19T04:49:31;24.58;;;5.93;;
44276;SDS011;29973;43.742;1.236;2023-10-19T04:51:57;28.17;;;5.40;;
44276;SDS011;29973;43.742;1.236;2023-10-19T04:54:23;15.27;;;5.05;;
44276;SDS011;29973;43.742;1.236;2023-10-19T04:56:48;18.92;;;5.82;;
44276;SDS011;29973;43.742;1.236;2023-10-19T04:59:17;28.17;;;6.32;;
44276;SDS011;29973;43.742;1.236;2023-10-19T05:01:43;20.63;;;5.15;;
44276;SDS011;29973;43.742;1.236;2023-10-19T05:04:08;23.48;;;5.60;;
44276;SDS011;29973;43.742;1.236;2023-10-19T05:06:34;25.55;;;5.85;;
44276;SDS011;29973;43.742;1.236;2023-10-19T05:09:00;26.42;;;5.75;;
44276;SDS011;29973;43.742;1.236;2023-10-19T05:11:28;24.05;;;6.38;;
44276;SDS011;29973;43.742;1.236;2023-10-19T05:13:53;22.23;;;5.68;;
44276;SDS011;29973;43.742;1.236;2023-10-19T05:16:20;22.17;;;5.78;;
44276;SDS011;29973;43.742;1.236;2023-10-19T05:18:45;14.27;;;4.50;;
44276;SDS011;29973;43.742;1.236;2023-10-19T05:21:11;18.15;;;5.30;;
44276;SDS011;29973;43.742;1.236;2023-10-19T05:23:37;18.80;;;5.45;;
44276;SDS011;29973;43.742;1.236;2023-10-19T05:26:04;24.67;;;5.35;;
44276;SDS011;29973;43.742;1.236;2023-10-19T05:28:31;18.27;;;5.10;;
44276;SDS011;29973;43.742;1.236;2023-10-19T05:30:57;24.10;;;5.38;;
44276;SDS011;29973;43.742;1.236;2023-10-19T05:33:24;19.02;;;6.03;;
44276;SDS011;29973;43.742;1.236;2023-10-19T05:35:52;19.08;;;4.85;;
44276;SDS011;29973;43.742;1.236;2023-10-19T05:38:18;17.33;;;4.68;;
44276;SDS011;29973;43.742;1.236;2023-10-19T05:40:47;20.95;;;3.97;;
44276;SDS011;29973;43.742;1.236;2023-10-19T05:43:15;11.60;;;4.60;;
44276;SDS011;29973;43.742;1.236;2023-10-19T05:45:41;16.92;;;4.65;;
44276;SDS011;29973;43.742;1.236;2023-10-19T05:48:07;11.43;;;3.58;;
44276;SDS011;29973;43.742;1.236;2023-10-19T05:50:33;13.45;;;4.25;;
44276;SDS011;29973;43.742;1.236;2023-10-19T05:52:59;18.08;;;4.43;;
44276;SDS011;29973;43.742;1.236;2023-10-19T05:55:25;16.80;;;3.95;;
44276;SDS011;29973;43.742;1.236;2023-10-19T05:57:51;16.95;;;3.85;;
44276;SDS011;29973;43.742;1.236;2023-10-19T06:00:17;10.43;;;3.75;;
44276;SDS011;29973;43.742;1.236;2023-10-19T06:02:45;12.50;;;3.80;;
44276;SDS011;29973;43.742;1.236;2023-10-19T06:05:16;13.00;;;3.28;;
44276;SDS011;29973;43.742;1.236;2023-10-19T06:07:46;10.88;;;3.60;;
44276;SDS011;29973;43.742;1.236;2023-10-19T06:10:14;10.20;;;3.67;;
44276;SDS011;29973;43.742;1.236;2023-10-19T06:12:42;15.27;;;3.72;;
44276;SDS011;29973;43.742;1.236;2023-10-19T06:15:10;11.25;;;3.45;;
44276;SDS011;29973;43.742;1.236;2023-10-19T06:17:36;12.55;;;3.50;;
44276;SDS011;29973;43.742;1.236;2023-10-19T06:20:09;13.68;;;3.38;;
44276;SDS011;29973;43.742;1.236;2023-10-19T06:22:52;10.57;;;2.95;;
44276;SDS011;29973;43.742;1.236;2023-10-19T06:25:21;11.35;;;3.55;;
44276;SDS011;29973;43.742;1.236;2023-10-19T06:27:48;13.27;;;3.80;;
44276;SDS011;29973;43.742;1.236;2023-10-19T06:30:15;11.40;;;3.47;;
44276;SDS011;29973;43.742;1.236;2023-10-19T06:32:50;13.18;;;3.47;;
44276;SDS011;29973;43.742;1.236;2023-10-19T06:35:18;14.35;;;3.70;;
44276;SDS011;29973;43.742;1.236;2023-10-19T06:37:44;11.80;;;3.35;;
44276;SDS011;29973;43.742;1.236;2023-10-19T06:40:11;12.50;;;3.50;;
44276;SDS011;29973;43.742;1.236;2023-10-19T06:42:40;13.80;;;3.40;;
44276;SDS011;29973;43.742;1.236;2023-10-19T06:45:06;15.00;;;3.60;;
44276;SDS011;29973;43.742;1.236;2023-10-19T06:47:33;21.15;;;3.80;;
44276;SDS011;29973;43.742;1.236;2023-10-19T06:50:04;11.67;;;3.80;;
44276;SDS011;29973;43.742;1.236;2023-10-19T06:52:33;15.10;;;3.13;;
44276;SDS011;29973;43.742;1.236;2023-10-19T06:55:01;15.88;;;3.40;;
44276;SDS011;29973;43.742;1.236;2023-10-19T06:57:28;14.45;;;3.72;;
44276;SDS011;29973;43.742;1.236;2023-10-19T06:59:54;13.32;;;3.65;;
44276;SDS011;29973;43.742;1.236;2023-10-19T07:02:19;14.98;;;3.65;;
44276;SDS011;29973;43.742;1.236;2023-10-19T07:04:45;8.50;;;3.45;;
44276;SDS011;29973;43.742;1.236;2023-10-19T07:07:12;19.63;;;3.40;;
44276;SDS011;29973;43.742;1.236;2023-10-19T07:09:39;13.85;;;4.30;;
44276;SDS011;29973;43.742;1.236;2023-10-19T07:12:06;9.65;;;3.80;;
44276;SDS011;29973;43.742;1.236;2023-10-19T07:14:33;12.55;;;3.50;;
44276;SDS011;29973;43.742;1.236;2023-10-19T07:16:59;13.77;;;3.72;;
44276;SDS011;29973;43.742;1.236;2023-10-19T07:19:25;16.92;;;4.03;;
44276;SDS011;29973;43.742;1.236;2023-10-19T07:21:50;11.48;;;3.70;;
44276;SDS011;29973;43.742;1.236;2023-10-19T07:24:22;12.07;;;3.97;;
44276;SDS011;29973;43.742;1.236;2023-10-19T07:26:49;11.43;;;4.30;;
44276;SDS011;29973;43.742;1.236;2023-10-19T07:29:30;11.27;;;3.92;;
44276;SDS011;29973;43.742;1.236;2023-10-19T07:31:57;12.90;;;3.95;;
44276;SDS011;29973;43.742;1.236;2023-10-19T07:34:23;10.95;;;4.22;;
44276;SDS011;29973;43.742;1.236;2023-10-19T07:36:56;12.93;;;3.95;;
44276;SDS011;29973;43.742;1.236;2023-10-19T07:39:24;14.60;;;3.83;;
44276;SDS011;29973;43.742;1.236;2023-10-19T07:41:54;13.02;;;3.53;;
44276;SDS011;29973;43.742;1.236;2023-10-19T07:44:22;9.93;;;3.38;;
44276;SDS011;29973;43.742;1.236;2023-10-19T07:46:49;13.95;;;3.58;;
44276;SDS011;29973;43.742;1.236;2023-10-19T07:49:14;16.35;;;3.90;;
44276;SDS011;29973;43.742;1.236;2023-10-19T07:51:44;11.23;;;3.75;;
44276;SDS011;29973;43.742;1.236;2023-10-19T07:54:11;12.40;;;4.15;;
44276;SDS011;29973;43.742;1.236;2023-10-19T07:56:37;12.70;;;3.53;;
44276;SDS011;29973;43.742;1.236;2023-10-19T07:59:03;12.25;;;3.95;;
44276;SDS011;29973;43.742;1.236;2023-10-19T08:01:28;13.35;;;3.25;;
44276;SDS011;29973;43.742;1.236;2023-10-19T08:03:54;13.20;;;3.08;;
44276;SDS011;29973;43.742;1.236;2023-10-19T08:06:20;14.27;;;3.67;;
44276;SDS011;29973;43.742;1.236;2023-10-19T08:08:45;16.67;;;3.83;;
44276;SDS011;29973;43.742;1.236;2023-10-19T08:11:11;12.82;;;3.20;;
44276;SDS011;29973;43.742;1.236;2023-10-19T08:13:37;12.77;;;2.95;;
44276;SDS011;29973;43.742;1.236;2023-10-19T08:16:05;10.90;;;3.30;;
44276;SDS011;29973;43.742;1.236;2023-10-19T08:18:32;10.52;;;3.03;;
44276;SDS011;29973;43.742;1.236;2023-10-19T08:21:00;13.90;;;3.28;;
44276;SDS011;29973;43.742;1.236;2023-10-19T08:23:27;13.32;;;3.25;;
44276;SDS011;29973;43.742;1.236;2023-10-19T08:25:53;16.40;;;3.58;;
44276;SDS011;29973;43.742;1.236;2023-10-19T08:28:20;12.85;;;3.65;;
44276;SDS011;29973;43.742;1.236;2023-10-19T08:30:47;14.23;;;3.28;;
44276;SDS011;29973;43.742;1.236;2023-10-19T08:33:22;12.32;;;3.15;;
44276;SDS011;29973;43.742;1.236;2023-10-19T08:35:51;10.68;;;3.45;;
44276;SDS011;29973;43.742;1.236;2023-10-19T08:38:20;13.50;;;3.88;;
44276;SDS011;29973;43.742;1.236;2023-10-19T08:40:47;11.27;;;3.50;;
44276;SDS011;29973;43.742;1.236;2023-10-19T08:43:14;8.48;;;3.40;;
44276;SDS011;29973;43.742;1.236;2023-10-19T08:45:43;13.25;;;3.42;;
44276;SDS011;29973;43.742;1.236;2023-10-19T08:48:09;12.30;;;3.40;;
44276;SDS011;29973;43.742;1.236;2023-10-19T08:50:36;14.93;;;5.10;;
44276;SDS011;29973;43.742;1.236;2023-10-19T08:53:05;18.52;;;4.85;;
44276;SDS011;29973;43.742;1.236;2023-10-19T08:55:33;13.95;;;4.25;;
44276;SDS011;29973;43.742;1.236;2023-10-19T08:57:59;11.88;;;4.50;;
44276;SDS011;29973;43.742;1.236;2023-10-19T09:00:26;12.02;;;3.67;;
44276;SDS011;29973;43.742;1.236;2023-10-19T09:02:52;9.95;;;3.38;;
44276;SDS011;29973;43.742;1.236;2023-10-19T09:05:19;9.07;;;3.10;;
44276;SDS011;29973;43.742;1.236;2023-10-19T09:07:50;9.60;;;3.20;;
44276;SDS011;29973;43.742;1.236;2023-10-19T09:10:27;12.98;;;3.45;;
44276;SDS011;29973;43.742;1.236;2023-10-19T09:17:54;10.48;;;3.63;;
44276;SDS011;29973;43.742;1.236;2023-10-19T09:20:20;12.93;;;3.08;;
44276;SDS011;29973;43.742;1.236;2023-10-19T09:22:55;13.48;;;3.90;;
44276;SDS011;29973;43.742;1.236;2023-10-19T09:25:23;14.48;;;3.20;;
44276;SDS011;29973;43.742;1.236;2023-10-19T09:27:49;12.07;;;3.20;;
44276;SDS011;29973;43.742;1.236;2023-10-19T09:30:16;10.45;;;2.80;;
44276;SDS011;29973;43.742;1.236;2023-10-19T09:32:48;14.20;;;3.20;;
44276;SDS011;29973;43.742;1.236;2023-10-19T09:35:14;9.57;;;2.88;;
44276;SDS011;29973;43.742;1.236;2023-10-19T09:37:42;9.93;;;3.08;;
44276;SDS011;29973;43.742;1.236;2023-10-19T09:40:10;11.15;;;2.75;;
44276;SDS011;29973;43.742;1.236;2023-10-19T09:42:38;11.63;;;3.13;;
44276;SDS011;29973;43.742;1.236;2023-10-19T09:45:13;18.38;;;2.97;;
44276;SDS011;29973;43.742;1.236;2023-10-19T09:47:47;15.20;;;3.13;;
44276;SDS011;29973;43.742;1.236;2023-10-19T09:52:41;10.20;;;2.75;;
44276;SDS011;29973;43.742;1.236;2023-10-19T09:55:12;11.13;;;3.08;;
44276;SDS011;29973;43.742;1.236;2023-10-19T09:57:51;11.27;;;2.83;;
44276;SDS011;29973;43.742;1.236;2023-10-19T10:00:20;14.65;;;2.92;;
44276;SDS011;29973;43.742;1.236;2023-10-19T10:02:49;7.97;;;2.95;;
44276;SDS011;29973;43.742;1.236;2023-10-19T10:10:43;13.82;;;2.95;;
44276;SDS011;29973;43.742;1.236;2023-10-19T10:13:36;10.77;;;3.53;;
44276;SDS011;29973;43.742;1.236;2023-10-19T10:16:01;11.80;;;3.28;;
44276;SDS011;29973;43.742;1.236;2023-10-19T10:18:31;9.18;;;2.67;;
44276;SDS011;29973;43.742;1.236;2023-10-19T10:21:12;16.08;;;3.00;;
44276;SDS011;29973;43.742;1.236;2023-10-19T10:26:15;11.63;;;3.17;;
44276;SDS011;29973;43.742;1.236;2023-10-19T10:28:48;16.92;;;2.95;;
44276;SDS011;29973;43.742;1.236;2023-10-19T10:31:33;10.93;;;2.67;;
44276;SDS011;29973;43.742;1.236;2023-10-19T10:34:05;13.07;;;2.90;;
44276;SDS011;29973;43.742;1.236;2023-10-19T10:37:18;6.93;;;2.55;;
44276;SDS011;29973;43.742;1.236;2023-10-19T10:39:27;11.93;;;2.65;;
44276;SDS011;29973;43.742;1.236;2023-10-19T10:41:56;8.40;;;3.20;;
44276;SDS011;29973;43.742;1.236;2023-10-19T10:44:38;12.45;;;3.08;;
44276;SDS011;29973;43.742;1.236;2023-10-19T10:47:11;10.27;;;3.13;;
44276;SDS011;29973;43.742;1.236;2023-10-19T10:49:51;9.10;;;3.10;;
44276;SDS011;29973;43.742;1.236;2023-10-19T10:52:34;9.50;;;3.35;;
44276;SDS011;29973;43.742;1.236;2023-10-19T10:55:08;12.65;;;3.15;;
44276;SDS011;29973;43.742;1.236;2023-10-19T10:57:38;14.65;;;3.03;;
44276;SDS011;29973;43.742;1.236;2023-10-19T11:02:42;12.77;;;3.38;;
44276;SDS011;29973;43.742;1.236;2023-10-19T11:05:08;7.45;;;2.97;;
44276;SDS011;29973;43.742;1.236;2023-10-19T11:07:37;10.05;;;3.20;;
44276;SDS011;29973;43.742;1.236;2023-10-19T11:10:04;17.98;;;3.85;;
44276;SDS011;29973;43.742;1.236;2023-10-19T11:12:30;9.02;;;3.40;;
44276;SDS011;29973;43.742;1.236;2023-10-19T11:14:58;14.93;;;3.22;;
44276;SDS011;29973;43.742;1.236;2023-10-19T11:17:24;16.02;;;3.28;;
44276;SDS011;29973;43.742;1.236;2023-10-19T11:19:57;8.20;;;2.88;;
44276;SDS011;29973;43.742;1.236;2023-10-19T11:22:24;10.40;;;3.13;;
44276;SDS011;29973;43.742;1.236;2023-10-19T11:24:51;7.60;;;3.17;;
44276;SDS011;29973;43.742;1.236;2023-10-19T11:27:22;12.52;;;3.28;;
44276;SDS011;29973;43.742;1.236;2023-10-19T11:29:57;10.15;;;3.28;;
44276;SDS011;29973;43.742;1.236;2023-10-19T11:32:24;6.20;;;2.47;;
44276;SDS011;29973;43.742;1.236;2023-10-19T11:34:56;12.25;;;3.08;;
44276;SDS011;29973;43.742;1.236;2023-10-19T11:37:22;8.25;;;3.05;;
44276;SDS011;29973;43.742;1.236;2023-10-19T11:39:48;8.13;;;2.65;;
44276;SDS011;29973;43.742;1.236;2023-10-19T11:42:17;8.52;;;2.83;;
44276;SDS011;29973;43.742;1.236;2023-10-19T11:44:43;8.18;;;2.85;;
44276;SDS011;29973;43.742;1.236;2023-10-19T11:47:10;9.75;;;3.08;;
44276;SDS011;29973;43.742;1.236;2023-10-19T11:49:36;12.40;;;3.08;;
44276;SDS011;29973;43.742;1.236;2023-10-19T11:52:06;13.15;;;3.17;;
44276;SDS011;29973;43.742;1.236;2023-10-19T11:54:33;8.90;;;2.85;;
44276;SDS011;29973;43.742;1.236;2023-10-19T11:56:59;8.68;;;2.58;;
44276;SDS011;29973;43.742;1.236;2023-10-19T11:59:25;10.80;;;3.17;;
44276;SDS011;29973;43.742;1.236;2023-10-19T12:01:51;10.70;;;2.80;;
44276;SDS011;29973;43.742;1.236;2023-10-19T12:04:17;11.75;;;3.00;;
44276;SDS011;29973;43.742;1.236;2023-10-19T12:06:44;14.95;;;2.53;;
44276;SDS011;29973;43.742;1.236;2023-10-19T12:09:12;6.65;;;2.60;;
44276;SDS011;29973;43.742;1.236;2023-10-19T12:11:41;6.85;;;2.60;;
44276;SDS011;29973;43.742;1.236;2023-10-19T12:14:12;10.43;;;2.90;;
44276;SDS011;29973;43.742;1.236;2023-10-19T12:16:41;9.85;;;3.10;;
44276;SDS011;29973;43.742;1.236;2023-10-19T12:19:07;10.05;;;2.95;;
44276;SDS011;29973;43.742;1.236;2023-10-19T12:21:33;8.05;;;3.00;;
44276;SDS011;29973;43.742;1.236;2023-10-19T12:23:59;6.95;;;2.78;;
44276;SDS011;29973;43.742;1.236;2023-10-19T12:26:26;11.95;;;2.53;;
44276;SDS011;29973;43.742;1.236;2023-10-19T12:28:55;13.77;;;2.80;;
44276;SDS011;29973;43.742;1.236;2023-10-19T12:31:21;13.95;;;2.72;;
44276;SDS011;29973;43.742;1.236;2023-10-19T12:33:48;14.40;;;3.45;;
44276;SDS011;29973;43.742;1.236;2023-10-19T12:36:14;12.75;;;3.10;;
44276;SDS011;29973;43.742;1.236;2023-10-19T12:38:56;13.68;;;3.28;;
44276;SDS011;29973;43.742;1.236;2023-10-19T12:41:22;14.90;;;2.97;;
44276;SDS011;29973;43.742;1.236;2023-10-19T12:43:49;11.35;;;2.83;;
44276;SDS011;29973;43.742;1.236;2023-10-19T12:46:26;7.60;;;2.70;;
44276;SDS011;29973;43.742;1.236;2023-10-19T12:48:55;12.25;;;3.10;;
44276;SDS011;29973;43.742;1.236;2023-10-19T12:51:22;8.95;;;2.70;;
44276;SDS011;29973;43.742;1.236;2023-10-19T12:53:50;10.50;;;2.92;;
44276;SDS011;29973;43.742;1.236;2023-10-19T12:56:17;8.18;;;2.85;;
44276;SDS011;29973;43.742;1.236;2023-10-19T12:58:43;9.65;;;2.95;;
44276;SDS011;29973;43.742;1.236;2023-10-19T13:01:09;15.68;;;2.95;;
44276;SDS011;29973;43.742;1.236;2023-10-19T13:03:42;14.32;;;2.80;;
44276;SDS011;29973;43.742;1.236;2023-10-19T13:06:10;10.25;;;3.08;;
44276;SDS011;29973;43.742;1.236;2023-10-19T13:08:37;9.30;;;2.70;;
44276;SDS011;29973;43.742;1.236;2023-10-19T13:11:05;8.68;;;2.58;;
44276;SDS011;29973;43.742;1.236;2023-10-19T13:13:40;8.63;;;2.63;;
44276;SDS011;29973;43.742;1.236;2023-10-19T13:16:06;12.30;;;3.03;;
44276;SDS011;29973;43.742;1.236;2023-10-19T13:18:34;8.48;;;2.95;;
44276;SDS011;29973;43.742;1.236;2023-10-19T13:21:00;13.80;;;2.92;;
44276;SDS011;29973;43.742;1.236;2023-10-19T13:23:36;8.13;;;2.13;;
44276;SDS011;29973;43.742;1.236;2023-10-19T13:26:02;7.78;;;3.10;;
44276;SDS011;29973;43.742;1.236;2023-10-19T13:28:40;6.57;;;2.85;;
44276;SDS011;29973;43.742;1.236;2023-10-19T13:31:07;13.00;;;3.05;;
44276;SDS011;29973;43.742;1.236;2023-10-19T13:33:39;9.48;;;2.65;;
44276;SDS011;29973;43.742;1.236;2023-10-19T13:36:06;9.95;;;2.80;;
44276;SDS011;29973;43.742;1.236;2023-10-19T13:38:33;8.18;;;2.65;;
44276;SDS011;29973;43.742;1.236;2023-10-19T13:40:58;8.60;;;2.50;;
44276;SDS011;29973;43.742;1.236;2023-10-19T13:43:27;6.13;;;2.60;;
44276;SDS011;29973;43.742;1.236;2023-10-19T13:45:53;8.88;;;2.90;;
44276;SDS011;29973;43.742;1.236;2023-10-19T13:48:20;9.95;;;2.63;;
44276;SDS011;29973;43.742;1.236;2023-10-19T13:50:47;9.27;;;2.83;;
44276;SDS011;29973;43.742;1.236;2023-10-19T13:53:16;12.65;;;3.13;;
44276;SDS011;29973;43.742;1.236;2023-10-19T13:55:43;8.68;;;2.40;;
44276;SDS011;29973;43.742;1.236;2023-10-19T13:58:09;13.13;;;3.00;;
44276;SDS011;29973;43.742;1.236;2023-10-19T14:00:36;9.75;;;2.75;;
44276;SDS011;29973;43.742;1.236;2023-10-19T14:03:12;11.23;;;2.80;;
44276;SDS011;29973;43.742;1.236;2023-10-19T14:05:39;7.80;;;2.88;;
44276;SDS011;29973;43.742;1.236;2023-10-19T14:08:13;18.77;;;4.18;;
44276;SDS011;29973;43.742;1.236;2023-10-19T14:10:40;13.32;;;3.40;;
44276;SDS011;29973;43.742;1.236;2023-10-19T14:13:07;11.27;;;2.80;;
44276;SDS011;29973;43.742;1.236;2023-10-19T14:15:33;11.85;;;3.25;;
44276;SDS011;29973;43.742;1.236;2023-10-19T14:17:59;13.02;;;3.65;;
44276;SDS011;29973;43.742;1.236;2023-10-19T14:20:27;11.43;;;3.47;;
44276;SDS011;29973;43.742;1.236;2023-10-19T14:22:55;11.93;;;3.10;;
44276;SDS011;29973;43.742;1.236;2023-10-19T14:25:21;12.05;;;3.85;;
44276;SDS011;29973;43.742;1.236;2023-10-19T14:27:51;12.33;;;4.47;;
44276;SDS011;29973;43.742;1.236;2023-10-19T14:30:24;12.27;;;4.00;;
44276;SDS011;29973;43.742;1.236;2023-10-19T14:32:51;12.15;;;3.97;;
44276;SDS011;29973;43.742;1.236;2023-10-19T14:35:21;10.30;;;3.53;;
44276;SDS011;29973;43.742;1.236;2023-10-19T14:37:51;12.65;;;3.63;;
44276;SDS011;29973;43.742;1.236;2023-10-19T14:40:22;16.70;;;3.75;;
44276;SDS011;29973;43.742;1.236;2023-10-19T14:42:53;12.48;;;3.88;;
44276;SDS011;29973;43.742;1.236;2023-10-19T14:45:20;11.25;;;3.83;;
44276;SDS011;29973;43.742;1.236;2023-10-19T14:47:51;12.40;;;3.70;;
44276;SDS011;29973;43.742;1.236;2023-10-19T14:50:19;15.88;;;4.28;;
44276;SDS011;29973;43.742;1.236;2023-10-19T14:52:46;15.63;;;4.53;;
44276;SDS011;29973;43.742;1.236;2023-10-19T14:55:13;19.05;;;4.45;;
44276;SDS011;29973;43.742;1.236;2023-10-19T14:57:43;13.27;;;3.65;;
44276;SDS011;29973;43.742;1.236;2023-10-19T15:00:18;13.52;;;3.92;;
44276;SDS011;29973;43.742;1.236;2023-10-19T15:02:54;11.93;;;4.20;;
44276;SDS011;29973;43.742;1.236;2023-10-19T15:05:22;12.48;;;4.88;;
44276;SDS011;29973;43.742;1.236;2023-10-19T15:07:50;13.30;;;4.78;;
44276;SDS011;29973;43.742;1.236;2023-10-19T15:10:17;13.73;;;4.65;;
44276;SDS011;29973;43.742;1.236;2023-10-19T15:12:44;15.68;;;4.93;;
44276;SDS011;29973;43.742;1.236;2023-10-19T15:15:10;13.27;;;5.13;;
44276;SDS011;29973;43.742;1.236;2023-10-19T15:17:54;11.13;;;5.10;;
44276;SDS011;29973;43.742;1.236;2023-10-19T15:20:23;14.43;;;4.53;;
44276;SDS011;29973;43.742;1.236;2023-10-19T15:22:51;11.98;;;4.40;;
44276;SDS011;29973;43.742;1.236;2023-10-19T15:25:17;17.40;;;5.30;;
44276;SDS011;29973;43.742;1.236;2023-10-19T15:27:45;19.42;;;4.90;;
44276;SDS011;29973;43.742;1.236;2023-10-19T15:30:13;15.63;;;5.20;;
44276;SDS011;29973;43.742;1.236;2023-10-19T15:32:40;12.25;;;4.63;;
44276;SDS011;29973;43.742;1.236;2023-10-19T15:35:07;14.93;;;4.93;;
44276;SDS011;29973;43.742;1.236;2023-10-19T15:37:38;11.32;;;4.70;;
44276;SDS011;29973;43.742;1.236;2023-10-19T15:40:04;14.38;;;5.00;;
44276;SDS011;29973;43.742;1.236;2023-10-19T15:42:30;11.50;;;4.65;;
44276;SDS011;29973;43.742;1.236;2023-10-19T15:44:56;15.07;;;4.95;;
44276;SDS011;29973;43.742;1.236;2023-10-19T15:47:22;9.50;;;4.70;;
44276;SDS011;29973;43.742;1.236;2023-10-19T15:49:53;13.82;;;5.70;;
44276;SDS011;29973;43.742;1.236;2023-10-19T15:52:23;14.57;;;5.60;;
44276;SDS011;29973;43.742;1.236;2023-10-19T15:54:51;17.00;;;5.05;;
44276;SDS011;29973;43.742;1.236;2023-10-19T15:57:17;14.32;;;5.57;;
44276;SDS011;29973;43.742;1.236;2023-10-19T15:59:44;14.38;;;4.95;;
44276;SDS011;29973;43.742;1.236;2023-10-19T16:02:10;12.13;;;5.22;;
44276;SDS011;29973;43.742;1.236;2023-10-19T16:04:40;16.52;;;6.05;;
44276;SDS011;29973;43.742;1.236;2023-10-19T16:07:10;9.18;;;5.45;;
44276;SDS011;29973;43.742;1.236;2023-10-19T16:09:38;13.88;;;5.32;;
44276;SDS011;29973;43.742;1.236;2023-10-19T16:12:04;16.65;;;4.93;;
44276;SDS011;29973;43.742;1.236;2023-10-19T16:14:33;23.90;;;5.68;;
44276;SDS011;29973;43.742;1.236;2023-10-19T16:16:59;16.45;;;5.15;;
44276;SDS011;29973;43.742;1.236;2023-10-19T16:19:25;16.00;;;5.85;;
44276;SDS011;29973;43.742;1.236;2023-10-19T16:21:51;18.13;;;5.90;;
44276;SDS011;29973;43.742;1.236;2023-10-19T16:24:17;17.33;;;5.43;;
44276;SDS011;29973;43.742;1.236;2023-10-19T16:26:43;15.45;;;5.55;;
44276;SDS011;29973;43.742;1.236;2023-10-19T16:29:09;14.23;;;5.15;;
44276;SDS011;29973;43.742;1.236;2023-10-19T16:31:42;16.75;;;6.07;;
44276;SDS011;29973;43.742;1.236;2023-10-19T16:34:09;19.27;;;6.10;;
44276;SDS011;29973;43.742;1.236;2023-10-19T16:36:38;18.58;;;6.45;;
44276;SDS011;29973;43.742;1.236;2023-10-19T16:39:05;18.98;;;5.88;;
44276;SDS011;29973;43.742;1.236;2023-10-19T16:41:57;17.98;;;6.03;;
44276;SDS011;29973;43.742;1.236;2023-10-19T16:44:23;12.27;;;5.85;;
44276;SDS011;29973;43.742;1.236;2023-10-19T16:46:50;11.77;;;6.72;;
44276;SDS011;29973;43.742;1.236;2023-10-19T16:49:16;18.30;;;6.70;;
44276;SDS011;29973;43.742;1.236;2023-10-19T16:51:42;17.83;;;7.63;;
44276;SDS011;29973;43.742;1.236;2023-10-19T16:54:11;20.15;;;7.50;;
44276;SDS011;29973;43.742;1.236;2023-10-19T16:56:39;19.58;;;6.95;;
44276;SDS011;29973;43.742;1.236;2023-10-19T16:59:08;16.52;;;7.63;;
44276;SDS011;29973;43.742;1.236;2023-10-19T17:01:37;21.20;;;7.50;;
44276;SDS011;29973;43.742;1.236;2023-10-19T17:04:03;17.52;;;7.50;;
44276;SDS011;29973;43.742;1.236;2023-10-19T17:06:29;17.90;;;7.03;;
44276;SDS011;29973;43.742;1.236;2023-10-19T17:08:56;19.13;;;7.03;;
44276;SDS011;29973;43.742;1.236;2023-10-19T17:11:34;17.70;;;7.85;;
44276;SDS011;29973;43.742;1.236;2023-10-19T17:13:59;17.60;;;8.18;;
44276;SDS011;29973;43.742;1.236;2023-10-19T17:16:26;14.90;;;7.85;;
44276;SDS011;29973;43.742;1.236;2023-10-19T17:18:52;19.42;;;8.50;;
44276;SDS011;29973;43.742;1.236;2023-10-19T17:21:18;18.77;;;8.63;;
44276;SDS011;29973;43.742;1.236;2023-10-19T17:23:43;21.17;;;8.63;;
44276;SDS011;29973;43.742;1.236;2023-10-19T17:26:09;22.02;;;8.50;;
44276;SDS011;29973;43.742;1.236;2023-10-19T17:28:35;15.15;;;8.02;;
44276;SDS011;29973;43.742;1.236;2023-10-19T17:31:02;14.70;;;8.23;;
44276;SDS011;29973;43.742;1.236;2023-10-19T17:33:27;17.23;;;7.70;;